Landeck, Austria
Current Conditions -  °F | °C
As of 1:55 PM on Friday 24 Oct 2014 (Local Time) from LIVE Reporting Station
Clear Clear  
Wind Chill: 42°   Ceiling: Unl
Heat Index: 46°   Visibility: 6mi
Dew Point: 32°   Wind: 9mph
Humidity: 57%   Direction: 10°N
Pressure: 30.09"   Gusts: 25mph
Location:  47.14°N, 10.56°E
Report Text: LIVE 241155Z 01008G22KT CAVOK 08/M00 Q1019 RMK SKC VIS MIN 9999
Loading
Personal Weather Stations






























Interactive Weather Map
Tropical Storm Tracking
New forecast layout! Learn more

10-Day Weather Forecast

Advertisements
Track Severe Weather on mobile